Time;durP1;ratioP1;P1;durP2;ratioP2;P2;SDS_P1;SDS_P2;PMS_P1;PMS_P2;Temp;Humidity;BMP_temperature;BMP_pressure;BME280_temperature;BME280_humidity;BME280_pressure;Samples;Min_cycle;Max_cycle;Signal;HPM_P1;HPM_P2
2024/01/11 00:00:49;;;;;;;7.43;3.70;;;2.20;99.90;;;;;;5031781;28;20178;-71
2024/01/11 00:03:15;;;;;;;3.60;3.03;;;2.20;99.90;;;;;;5033195;28;20177;-71
2024/01/11 00:05:41;;;;;;;4.90;3.17;;;2.20;99.90;;;;;;5033375;28;20170;-72
2024/01/11 00:08:07;;;;;;;6.57;3.43;;;2.20;99.90;;;;;;5033069;28;20222;-71
2024/01/11 00:10:33;;;;;;;3.43;3.07;;;2.20;99.90;;;;;;5033252;28;20269;-72
2024/01/11 00:12:59;;;;;;;7.37;3.30;;;2.20;99.90;;;;;;5020924;28;20189;-71
2024/01/11 00:15:24;;;;;;;5.60;3.33;;;2.10;99.90;;;;;;5031344;28;20182;-72
2024/01/11 00:17:50;;;;;;;5.17;3.37;;;2.10;99.90;;;;;;5027992;28;20628;-70
2024/01/11 00:20:16;;;;;;;9.73;3.80;;;2.10;99.90;;;;;;5025818;28;20170;-70
2024/01/11 00:22:42;;;;;;;4.77;3.50;;;2.10;99.90;;;;;;5033023;28;20181;-71
2024/01/11 00:25:08;;;;;;;3.67;3.30;;;2.10;99.90;;;;;;5032937;28;20196;-71
2024/01/11 00:27:34;;;;;;;6.70;3.33;;;2.00;99.90;;;;;;5033135;28;20196;-70
2024/01/11 00:29:59;;;;;;;5.03;3.13;;;2.00;99.90;;;;;;5032680;28;20173;-71
2024/01/11 00:32:25;;;;;;;3.97;2.97;;;2.10;99.90;;;;;;5032764;28;20640;-71
2024/01/11 00:34:52;;;;;;;6.70;3.57;;;2.10;99.90;;;;;;5032885;28;20192;-71
2024/01/11 00:37:18;;;;;;;7.17;3.30;;;2.10;99.90;;;;;;5032621;28;20562;-72
2024/01/11 00:39:43;;;;;;;5.07;3.10;;;2.10;99.90;;;;;;5031388;28;20181;-71
2024/01/11 00:42:09;;;;;;;4.97;3.10;;;2.10;99.90;;;;;;5032565;28;20177;-71
2024/01/11 00:44:35;;;;;;;6.53;3.00;;;2.10;99.90;;;;;;5032472;28;20178;-72
2024/01/11 00:47:00;;;;;;;5.30;3.40;;;2.10;99.90;;;;;;5032738;28;20178;-72
2024/01/11 00:49:26;;;;;;;3.67;3.10;;;2.10;99.90;;;;;;5032471;28;20169;-72
2024/01/11 00:51:52;;;;;;;4.33;3.20;;;2.00;99.90;;;;;;5032533;28;20538;-70
2024/01/11 00:54:17;;;;;;;5.30;3.37;;;2.00;99.90;;;;;;5032500;28;20169;-71
2024/01/11 00:56:43;;;;;;;7.90;3.47;;;2.00;99.90;;;;;;5032322;28;20265;-71
2024/01/11 00:59:09;;;;;;;5.57;3.60;;;2.00;99.90;;;;;;5031741;28;20174;-72
2024/01/11 01:01:34;;;;;;;6.57;3.50;;;2.10;99.90;;;;;;5031819;28;20166;-72
2024/01/11 01:04:00;;;;;;;6.33;3.20;;;2.10;99.90;;;;;;5032395;28;20162;-72
2024/01/11 01:06:25;;;;;;;5.93;3.53;;;2.10;99.90;;;;;;5032257;28;20174;-71
2024/01/11 01:08:51;;;;;;;7.50;3.60;;;2.10;99.90;;;;;;5032028;28;20225;-71
2024/01/11 01:11:17;;;;;;;5.43;3.60;;;2.10;99.90;;;;;;5031011;28;20253;-71
2024/01/11 01:13:43;;;;;;;4.67;3.50;;;2.10;99.90;;;;;;5032040;28;20216;-70
2024/01/11 01:16:08;;;;;;;10.60;4.00;;;2.10;99.90;;;;;;5032092;28;20224;-73
2024/01/11 01:18:34;;;;;;;4.37;3.97;;;2.10;99.90;;;;;;5031955;28;20216;-71
2024/01/11 01:20:59;;;;;;;10.47;3.70;;;2.10;99.90;;;;;;5031992;28;20652;-71
2024/01/11 01:23:25;;;;;;;5.00;3.50;;;2.10;99.90;;;;;;5032416;28;20518;-71
2024/01/11 01:25:51;;;;;;;4.50;3.60;;;2.10;99.90;;;;;;5030641;28;20171;-72
2024/01/11 01:28:16;;;;;;;4.83;3.57;;;2.10;99.90;;;;;;5031762;28;20182;-71
2024/01/11 01:30:42;;;;;;;5.03;3.60;;;2.10;99.90;;;;;;5031743;28;20170;-71
2024/01/11 01:33:08;;;;;;;4.87;3.80;;;2.10;99.90;;;;;;5031776;28;20232;-70
2024/01/11 01:35:34;;;;;;;9.40;4.30;;;2.10;99.90;;;;;;5031835;28;20181;-70
2024/01/11 01:38:00;;;;;;;8.63;3.83;;;2.10;99.90;;;;;;5031532;28;20213;-70
2024/01/11 01:40:25;;;;;;;7.40;3.90;;;2.10;99.90;;;;;;5031616;28;20177;-71
2024/01/11 01:42:59;;;;;;;4.03;3.53;;;2.00;99.90;;;;;;5031615;28;20173;-70
2024/01/11 01:45:25;;;;;;;9.20;4.10;;;2.00;99.90;;;;;;5031520;28;20169;-71
2024/01/11 01:47:51;;;;;;;6.67;4.67;;;2.10;99.90;;;;;;5030251;28;20173;-71
2024/01/11 01:50:18;;;;;;;4.57;3.60;;;2.10;99.90;;;;;;5031474;28;20220;-71
2024/01/11 01:52:44;;;;;;;6.53;3.87;;;2.10;99.90;;;;;;5031577;28;20173;-71
2024/01/11 01:55:12;;;;;;;5.33;4.20;;;2.00;99.90;;;;;;5031468;28;20174;-70
2024/01/11 01:57:40;;;;;;;7.50;3.70;;;2.10;99.90;;;;;;5031271;28;20195;-71
2024/01/11 02:00:08;;;;;;;8.77;3.70;;;2.00;99.90;;;;;;5031449;28;20645;-71
2024/01/11 02:02:35;;;;;;;5.50;4.10;;;2.00;99.90;;;;;;5031381;28;20265;-71
2024/01/11 02:05:01;;;;;;;5.20;3.83;;;2.00;99.90;;;;;;5031326;28;20178;-71
2024/01/11 02:07:27;;;;;;;6.00;3.53;;;1.90;99.90;;;;;;5031172;28;20283;-71
2024/01/11 02:09:53;;;;;;;5.13;3.60;;;2.00;99.90;;;;;;5031231;28;20616;-71
2024/01/11 02:12:18;;;;;;;9.90;3.93;;;2.00;99.90;;;;;;5030860;28;20184;-71
2024/01/11 02:14:44;;;;;;;5.37;3.83;;;2.00;99.90;;;;;;5031185;28;20231;-71
2024/01/11 02:17:10;;;;;;;7.27;3.80;;;1.90;99.90;;;;;;5030103;28;20236;-71
2024/01/11 02:19:36;;;;;;;5.40;3.60;;;1.90;99.90;;;;;;5031231;28;20178;-71
2024/01/11 02:22:20;;;;;;;6.03;3.33;;;1.90;99.90;;;;;;5031087;28;20170;-71
2024/01/11 02:24:46;;;;;;;6.40;3.70;;;1.90;99.90;;;;;;5030920;28;20628;-71
2024/01/11 02:27:12;;;;;;;6.67;3.93;;;1.80;99.90;;;;;;5029439;28;20182;-71
2024/01/11 02:29:37;;;;;;;4.63;3.67;;;1.80;99.90;;;;;;5030935;28;20261;-71
2024/01/11 02:32:05;;;;;;;4.33;3.90;;;1.90;99.90;;;;;;5030829;28;20177;-71
2024/01/11 02:34:31;;;;;;;4.90;3.93;;;1.80;99.90;;;;;;5030828;28;20178;-71
2024/01/11 02:36:57;;;;;;;6.77;3.87;;;1.80;99.90;;;;;;5030875;28;20177;-71
2024/01/11 02:39:24;;;;;;;5.97;3.93;;;1.90;99.90;;;;;;5031097;28;20573;-71
2024/01/11 02:41:52;;;;;;;6.60;3.90;;;1.90;99.90;;;;;;5030981;28;20229;-72
2024/01/11 02:44:17;;;;;;;5.73;4.00;;;1.90;99.90;;;;;;5030929;28;20698;-71
2024/01/11 02:46:43;;;;;;;4.17;3.77;;;1.80;99.90;;;;;;5030980;28;20173;-71
2024/01/11 02:49:09;;;;;;;6.70;3.93;;;1.80;99.90;;;;;;5029697;28;20178;-71
2024/01/11 02:51:36;;;;;;;7.67;3.77;;;1.70;99.90;;;;;;5016970;28;20189;-71
2024/01/11 02:54:02;;;;;;;6.00;3.67;;;1.80;99.90;;;;;;5030992;28;20209;-72
2024/01/11 02:56:27;;;;;;;7.00;3.60;;;1.80;99.90;;;;;;5030569;28;20216;-72
2024/01/11 02:58:53;;;;;;;10.00;4.00;;;1.80;99.90;;;;;;5030592;28;20221;-72
2024/01/11 03:01:19;;;;;;;6.50;3.77;;;1.80;99.90;;;;;;5030757;28;20236;-72
2024/01/11 03:03:45;;;;;;;6.80;3.83;;;1.80;99.90;;;;;;5030745;28;20186;-71
2024/01/11 03:06:10;;;;;;;6.83;4.07;;;1.70;99.90;;;;;;5030641;28;20166;-71
2024/01/11 03:08:36;;;;;;;5.87;4.07;;;1.70;99.90;;;;;;5020993;28;20218;-72
2024/01/11 03:11:02;;;;;;;5.77;3.73;;;1.60;99.90;;;;;;5010922;28;20198;-71
2024/01/11 03:13:27;;;;;;;7.13;3.70;;;1.70;99.90;;;;;;5010893;28;20206;-71
2024/01/11 03:15:53;;;;;;;5.83;4.50;;;1.60;99.90;;;;;;5010864;28;20167;-70
2024/01/11 03:18:19;;;;;;;8.23;3.63;;;1.60;99.90;;;;;;5010743;28;20551;-70
2024/01/11 03:20:44;;;;;;;12.40;4.23;;;1.60;99.90;;;;;;5010649;28;20179;-72
2024/01/11 03:23:10;;;;;;;5.67;3.60;;;1.50;99.90;;;;;;5011710;28;20189;-70
2024/01/11 03:25:36;;;;;;;4.67;3.90;;;1.50;99.90;;;;;;5014300;28;20253;-70
2024/01/11 03:28:01;;;;;;;4.90;3.70;;;1.40;99.90;;;;;;5014214;28;20197;-71
2024/01/11 03:30:28;;;;;;;6.03;3.90;;;1.40;99.90;;;;;;5032268;28;20174;-71
2024/01/11 03:32:54;;;;;;;7.93;3.77;;;1.40;99.90;;;;;;5034053;28;20174;-71
2024/01/11 03:35:21;;;;;;;7.83;3.70;;;1.80;99.90;;;;;;5033440;28;20174;-71
2024/01/11 03:37:47;;;;;;;6.50;3.60;;;1.40;99.90;;;;;;5033695;28;20209;-72
2024/01/11 03:40:12;;;;;;;11.53;4.00;;;1.40;99.90;;;;;;5033653;28;20189;-70
2024/01/11 03:42:38;;;;;;;8.50;4.37;;;1.50;99.90;;;;;;5033769;28;20201;-70
2024/01/11 03:45:04;;;;;;;6.03;3.63;;;1.50;99.90;;;;;;5033748;28;20620;-70
2024/01/11 03:47:30;;;;;;;7.63;4.00;;;1.60;99.90;;;;;;5033678;28;20628;-70
2024/01/11 03:49:56;;;;;;;6.03;4.50;;;1.60;99.90;;;;;;5033572;28;20211;-70
2024/01/11 03:52:22;;;;;;;5.63;4.17;;;1.60;99.90;;;;;;5033590;28;20170;-70
2024/01/11 03:54:48;;;;;;;6.77;3.97;;;1.70;99.90;;;;;;5033624;28;20246;-70
2024/01/11 03:57:14;;;;;;;5.43;4.00;;;1.80;99.90;;;;;;5033506;28;20383;-70
2024/01/11 03:59:40;;;;;;;5.00;4.00;;;1.80;99.90;;;;;;5033520;28;20664;-70
2024/01/11 04:02:06;;;;;;;11.90;4.73;;;1.80;99.90;;;;;;5033541;28;20178;-71
2024/01/11 04:04:32;;;;;;;7.03;4.13;;;1.90;99.90;;;;;;5033440;28;20220;-70
2024/01/11 04:06:58;;;;;;;4.73;4.00;;;2.00;99.90;;;;;;5033251;28;20602;-70
2024/01/11 04:09:24;;;;;;;6.23;4.00;;;2.10;99.90;;;;;;5033392;28;20266;-70
2024/01/11 04:11:49;;;;;;;5.90;4.30;;;2.00;99.90;;;;;;5033259;28;20205;-70
2024/01/11 04:14:15;;;;;;;6.03;3.77;;;2.10;99.90;;;;;;5033251;28;20170;-70
2024/01/11 04:16:42;;;;;;;4.80;4.20;;;2.10;99.90;;;;;;5048599;28;20166;-70
2024/01/11 04:19:08;;;;;;;5.13;3.93;;;2.20;99.90;;;;;;5032992;28;20201;-70
2024/01/11 04:21:34;;;;;;;9.97;4.40;;;2.20;99.90;;;;;;5033141;28;20690;-70
2024/01/11 04:24:00;;;;;;;5.27;4.43;;;2.30;99.90;;;;;;5033078;28;20174;-70
2024/01/11 04:26:26;;;;;;;6.57;3.97;;;2.30;99.90;;;;;;5033080;28;20219;-71
2024/01/11 04:28:52;;;;;;;4.93;3.73;;;2.40;99.90;;;;;;5032995;28;20174;-70
2024/01/11 04:31:18;;;;;;;8.70;4.40;;;2.40;99.90;;;;;;5032939;28;20173;-70
2024/01/11 04:33:44;;;;;;;8.83;4.27;;;2.40;99.90;;;;;;5032435;28;20177;-70
2024/01/11 04:36:10;;;;;;;9.63;4.50;;;2.50;99.90;;;;;;5032830;28;20170;-70
2024/01/11 04:38:37;;;;;;;8.37;3.90;;;2.60;99.90;;;;;;5032900;28;20301;-70
2024/01/11 04:41:07;;;;;;;8.83;4.03;;;2.70;99.90;;;;;;5032508;28;20568;-70
2024/01/11 04:43:33;;;;;;;8.70;3.80;;;2.70;99.90;;;;;;5032661;28;20255;-70
2024/01/11 04:45:58;;;;;;;7.93;4.37;;;2.70;99.90;;;;;;5032582;28;20201;-70
2024/01/11 04:48:24;;;;;;;9.07;4.00;;;2.70;99.90;;;;;;5032379;28;20189;-70
2024/01/11 04:50:50;;;;;;;8.57;3.80;;;2.80;99.90;;;;;;5032337;28;20172;-70
2024/01/11 04:53:15;;;;;;;7.83;4.20;;;2.80;99.90;;;;;;5032616;28;20178;-70
2024/01/11 04:55:41;;;;;;;8.97;3.50;;;2.80;99.90;;;;;;5032181;28;20235;-70
2024/01/11 04:58:07;;;;;;;8.57;3.67;;;2.80;99.90;;;;;;5031159;28;20225;-70
2024/01/11 05:00:33;;;;;;;7.10;3.63;;;2.80;99.90;;;;;;5032215;28;20185;-71
2024/01/11 05:02:58;;;;;;;10.67;3.50;;;2.90;99.90;;;;;;5042946;28;20542;-70
2024/01/11 05:05:24;;;;;;;11.67;4.10;;;2.90;99.90;;;;;;5032099;28;20625;-70
2024/01/11 05:07:49;;;;;;;7.80;3.77;;;2.90;99.90;;;;;;5032150;28;20688;-70
2024/01/11 05:10:15;;;;;;;8.77;3.47;;;2.90;99.90;;;;;;5032143;28;20216;-70
2024/01/11 05:12:41;;;;;;;10.87;3.77;;;2.90;99.90;;;;;;5031938;28;20189;-70
2024/01/11 05:15:09;;;;;;;11.33;3.70;;;2.90;99.90;;;;;;5030729;28;20182;-70
2024/01/11 05:17:35;;;;;;;6.07;4.03;;;2.80;99.90;;;;;;5031605;28;20197;-70
2024/01/11 05:20:01;;;;;;;8.67;3.70;;;2.80;99.90;;;;;;5031847;28;20193;-71
2024/01/11 05:22:26;;;;;;;10.77;3.80;;;2.90;99.90;;;;;;5030486;28;20547;-70
2024/01/11 05:24:52;;;;;;;10.93;3.50;;;2.90;99.90;;;;;;5031945;28;20555;-71
2024/01/11 05:27:17;;;;;;;4.27;3.20;;;2.90;99.90;;;;;;5031547;28;20169;-70
2024/01/11 05:29:43;;;;;;;7.97;3.63;;;2.90;99.90;;;;;;5029317;28;20185;-70
2024/01/11 05:32:09;;;;;;;7.83;3.53;;;2.90;99.90;;;;;;5020406;28;20181;-70
2024/01/11 05:34:34;;;;;;;9.07;3.27;;;2.90;99.90;;;;;;5031591;28;20177;-70
2024/01/11 05:37:00;;;;;;;8.50;3.40;;;2.90;99.90;;;;;;5031411;28;20257;-70
2024/01/11 05:39:26;;;;;;;6.20;3.43;;;3.00;99.90;;;;;;5031617;28;20213;-70
2024/01/11 05:41:52;;;;;;;6.87;3.67;;;3.00;99.90;;;;;;5031655;28;20178;-70
2024/01/11 05:44:17;;;;;;;11.50;4.07;;;3.00;99.90;;;;;;5031589;28;20173;-70
2024/01/11 05:46:44;;;;;;;10.63;3.57;;;3.00;99.90;;;;;;5030628;28;21012;-70
2024/01/11 05:49:09;;;;;;;6.13;3.20;;;3.00;99.90;;;;;;5031266;28;20178;-70
2024/01/11 05:51:35;;;;;;;10.03;4.00;;;3.00;99.90;;;;;;5031580;28;20181;-70
2024/01/11 05:54:01;;;;;;;6.83;3.50;;;3.00;99.90;;;;;;5030208;28;20174;-71
2024/01/11 05:56:26;;;;;;;10.43;3.93;;;3.00;99.90;;;;;;5031326;28;20178;-71
2024/01/11 05:58:52;;;;;;;8.73;3.63;;;3.00;99.90;;;;;;5031304;28;20240;-71
2024/01/11 06:01:18;;;;;;;14.93;3.67;;;3.00;99.90;;;;;;5031231;28;20162;-71
2024/01/11 06:03:43;;;;;;;6.83;3.37;;;3.00;99.90;;;;;;5031289;28;20178;-71
2024/01/11 06:06:09;;;;;;;9.63;3.40;;;3.00;99.90;;;;;;5030125;28;20170;-71
2024/01/11 06:08:34;;;;;;;9.47;3.87;;;2.90;99.90;;;;;;5030900;28;20224;-71
2024/01/11 06:11:00;;;;;;;5.40;3.13;;;3.00;99.90;;;;;;5031275;28;20204;-71
2024/01/11 06:13:26;;;;;;;11.50;3.53;;;3.00;99.90;;;;;;5031240;28;20513;-71
2024/01/11 06:15:52;;;;;;;12.10;3.63;;;3.00;99.90;;;;;;5031104;28;20244;-71
2024/01/11 06:18:17;;;;;;;6.07;3.17;;;3.00;99.90;;;;;;5029920;28;20267;-71
2024/01/11 06:20:43;;;;;;;5.73;3.10;;;3.00;99.90;;;;;;5029618;28;20170;-71
2024/01/11 06:23:09;;;;;;;10.30;3.33;;;3.10;99.90;;;;;;5031125;28;20188;-71
2024/01/11 06:25:35;;;;;;;12.07;3.30;;;3.10;99.90;;;;;;5031216;28;20248;-71
2024/01/11 06:28:02;;;;;;;8.70;3.23;;;3.00;99.90;;;;;;5030859;28;20178;-70
2024/01/11 06:30:28;;;;;;;16.87;3.83;;;3.00;99.90;;;;;;5030703;28;20182;-70
2024/01/11 06:32:53;;;;;;;11.00;3.37;;;3.10;99.90;;;;;;5030988;28;20196;-70
2024/01/11 06:35:19;;;;;;;11.63;3.87;;;3.10;99.90;;;;;;5030650;28;20559;-70
2024/01/11 06:37:45;;;;;;;8.67;3.40;;;3.10;99.90;;;;;;5030720;28;20711;-70
2024/01/11 06:40:10;;;;;;;11.43;3.37;;;3.10;99.90;;;;;;5030814;28;20174;-70
2024/01/11 06:42:36;;;;;;;6.37;3.63;;;3.10;99.90;;;;;;5030907;28;20578;-70
2024/01/11 06:45:03;;;;;;;10.57;3.40;;;3.10;99.90;;;;;;5030786;28;20174;-70
2024/01/11 06:47:29;;;;;;;7.33;3.07;;;3.10;99.90;;;;;;5031156;28;20197;-70
2024/01/11 06:49:54;;;;;;;6.23;3.10;;;3.10;99.90;;;;;;5030956;28;20674;-71
2024/01/11 06:52:20;;;;;;;8.80;3.43;;;3.10;99.90;;;;;;5030844;28;20664;-70
2024/01/11 06:54:45;;;;;;;7.23;3.23;;;3.20;99.90;;;;;;5030929;28;20628;-70
2024/01/11 06:57:11;;;;;;;9.97;3.40;;;3.20;99.90;;;;;;5030698;28;20625;-70
2024/01/11 06:59:37;;;;;;;6.47;3.37;;;3.20;99.90;;;;;;5034489;28;20217;-70
2024/01/11 07:02:03;;;;;;;6.73;3.43;;;3.20;99.90;;;;;;5034755;28;20170;-70
2024/01/11 07:04:29;;;;;;;7.67;3.40;;;3.20;99.90;;;;;;5034635;28;20177;-72
2024/01/11 07:06:55;;;;;;;11.27;3.53;;;3.20;99.90;;;;;;5033023;28;20688;-70
2024/01/11 07:09:20;;;;;;;7.67;3.47;;;3.30;99.90;;;;;;5034436;28;20232;-70
2024/01/11 07:11:46;;;;;;;12.13;3.30;;;3.30;99.90;;;;;;5034430;28;20177;-69
2024/01/11 07:14:12;;;;;;;9.10;3.37;;;3.30;99.90;;;;;;5034560;28;20260;-69
2024/01/11 07:16:37;;;;;;;9.03;3.40;;;3.30;99.90;;;;;;5034418;28;20182;-71
2024/01/11 07:19:03;;;;;;;10.10;3.60;;;3.30;99.90;;;;;;5034366;28;20221;-72
2024/01/11 07:21:31;;;;;;;8.87;3.20;;;3.30;99.90;;;;;;5034304;28;20173;-72
2024/01/11 07:24:00;;;;;;;6.57;3.30;;;3.30;99.90;;;;;;5033820;28;20187;-70
2024/01/11 07:26:26;;;;;;;8.87;3.17;;;3.30;99.90;;;;;;5034083;28;20166;-72
2024/01/11 07:28:54;;;;;;;12.13;3.07;;;3.30;99.90;;;;;;5034059;28;20177;-73
2024/01/11 07:31:20;;;;;;;10.27;3.40;;;3.30;99.90;;;;;;5034111;28;20204;-71
2024/01/11 07:33:46;;;;;;;7.90;2.40;;;3.30;99.90;;;;;;5032543;28;20554;-71
2024/01/11 07:36:11;;;;;;;8.97;3.03;;;3.40;99.90;;;;;;5033302;28;20173;-72
2024/01/11 07:38:37;;;;;;;7.57;2.70;;;3.30;99.90;;;;;;5033088;28;20691;-72
2024/01/11 07:41:03;;;;;;;11.03;2.97;;;3.40;99.90;;;;;;5033269;28;20243;-70
2024/01/11 07:43:28;;;;;;;10.90;2.67;;;3.40;99.90;;;;;;5033724;28;20253;-70
2024/01/11 07:45:56;;;;;;;9.07;3.10;;;3.40;99.90;;;;;;5033359;28;20721;-70
2024/01/11 07:48:22;;;;;;;10.57;2.80;;;3.40;99.90;;;;;;5033289;28;20173;-71
2024/01/11 07:50:49;;;;;;;6.73;2.70;;;3.50;99.90;;;;;;5033452;28;20264;-71
2024/01/11 07:53:15;;;;;;;7.87;2.87;;;3.40;99.90;;;;;;5033178;28;20545;-72
2024/01/11 07:55:41;;;;;;;8.47;2.87;;;3.50;99.90;;;;;;5033360;28;20166;-71
2024/01/11 07:58:07;;;;;;;7.20;2.33;;;3.50;99.90;;;;;;5033061;28;20221;-71
2024/01/11 08:03:08;;;;;;;8.60;3.17;;;3.50;99.90;;;;;;4412552;22;20701;-73
2024/01/11 08:05:34;;;;;;;14.33;3.13;;;3.50;99.90;;;;;;5035546;28;20195;-74
2024/01/11 08:08:02;;;;;;;4.67;2.70;;;3.50;99.90;;;;;;5046106;28;20235;-73
2024/01/11 08:10:28;;;;;;;10.73;3.40;;;3.50;99.90;;;;;;5052106;28;20169;-73
2024/01/11 08:12:55;;;;;;;14.27;2.93;;;3.50;99.90;;;;;;5052708;28;20536;-72
2024/01/11 08:15:21;;;;;;;11.17;2.77;;;3.50;99.90;;;;;;5052027;28;20181;-73
2024/01/11 08:17:47;;;;;;;11.30;2.97;;;3.50;99.90;;;;;;5035082;28;20608;-73
2024/01/11 08:20:13;;;;;;;7.20;2.70;;;3.60;99.90;;;;;;5052990;28;20165;-72
2024/01/11 08:22:43;;;;;;;8.13;2.60;;;3.60;99.90;;;;;;5051193;28;20178;-73
2024/01/11 08:25:09;;;;;;;6.03;2.63;;;3.60;99.90;;;;;;5052419;28;20177;-72
2024/01/11 08:27:35;;;;;;;8.20;2.63;;;3.50;99.90;;;;;;5052283;28;20174;-72
2024/01/11 08:30:02;;;;;;;8.77;2.70;;;3.50;99.90;;;;;;5052518;28;20262;-72
2024/01/11 08:32:28;;;;;;;6.57;2.70;;;3.50;99.90;;;;;;5052256;28;20322;-73
2024/01/11 08:34:54;;;;;;;6.23;2.53;;;3.50;99.90;;;;;;5051550;28;20173;-73
2024/01/11 08:37:19;;;;;;;7.73;2.70;;;3.50;99.90;;;;;;5051129;28;20211;-73
2024/01/11 08:39:46;;;;;;;7.40;2.50;;;3.50;99.90;;;;;;5051349;28;20540;-73
2024/01/11 08:42:12;;;;;;;6.93;2.47;;;3.50;99.90;;;;;;5052013;28;20185;-74
2024/01/11 08:44:42;;;;;;;5.33;2.80;;;3.60;99.90;;;;;;5034502;28;20173;-74
2024/01/11 08:47:09;;;;;;;10.47;2.97;;;3.60;99.90;;;;;;5050797;28;20172;-74
2024/01/11 08:49:36;;;;;;;8.03;2.43;;;3.60;99.90;;;;;;5052189;28;20179;-74
2024/01/11 08:52:02;;;;;;;6.10;2.37;;;3.60;99.90;;;;;;5051888;28;20696;-74
2024/01/11 08:54:28;;;;;;;7.33;2.57;;;3.70;99.90;;;;;;5050954;28;20181;-73
2024/01/11 08:56:54;;;;;;;9.20;2.53;;;3.70;99.90;;;;;;5050423;28;20173;-74
2024/01/11 08:59:19;;;;;;;10.17;2.57;;;3.90;99.90;;;;;;5050095;28;20205;-73
2024/01/11 09:01:45;;;;;;;10.90;2.67;;;4.60;99.90;;;;;;5049324;28;20169;-73
2024/01/11 09:04:10;;;;;;;4.63;2.20;;;4.60;99.90;;;;;;5050102;28;20695;-73
2024/01/11 09:06:36;;;;;;;5.17;2.10;;;4.70;99.90;;;;;;5050208;28;20643;-74
2024/01/11 09:09:02;;;;;;;5.97;2.40;;;4.60;99.90;;;;;;5051093;28;20201;-74
2024/01/11 09:11:27;;;;;;;6.53;2.27;;;4.50;99.90;;;;;;5052974;28;20204;-74
2024/01/11 09:13:53;;;;;;;4.87;2.10;;;5.20;99.90;;;;;;5051182;28;20169;-73
2024/01/11 09:16:19;;;;;;;5.80;2.10;;;5.30;99.90;;;;;;5051299;28;20230;-71
2024/01/11 09:18:45;;;;;;;7.37;2.00;;;5.70;99.90;;;;;;5031837;28;20217;-71
2024/01/11 09:21:12;;;;;;;8.07;2.10;;;5.60;99.90;;;;;;5031075;28;20169;-71
2024/01/11 09:23:37;;;;;;;7.00;1.90;;;5.50;99.90;;;;;;5031916;28;20236;-70
2024/01/11 09:26:03;;;;;;;4.10;1.67;;;5.50;99.90;;;;;;5032007;28;20213;-71
2024/01/11 09:28:29;;;;;;;6.47;1.83;;;5.30;99.90;;;;;;5031561;28;20628;-71
2024/01/11 09:30:59;;;;;;;6.50;1.60;;;5.00;99.90;;;;;;5031790;28;20636;-70
2024/01/11 09:33:26;;;;;;;5.70;1.60;;;4.90;99.90;;;;;;5014842;28;20775;-71
2024/01/11 09:35:51;;;;;;;7.53;1.53;;;4.80;99.90;;;;;;5031681;28;20162;-71
2024/01/11 09:38:17;;;;;;;5.37;1.30;;;4.70;99.90;;;;;;5031690;28;20205;-71
2024/01/11 09:40:42;;;;;;;8.37;1.50;;;4.70;99.90;;;;;;5031608;28;20551;-71
2024/01/11 09:43:09;;;;;;;3.93;1.13;;;5.00;99.90;;;;;;5013889;28;20192;-71
2024/01/11 09:45:37;;;;;;;7.93;1.30;;;5.10;99.90;;;;;;5031612;28;20616;-71
2024/01/11 09:48:06;;;;;;;3.10;1.33;;;5.10;99.90;;;;;;5031410;28;20186;-71
2024/01/11 09:50:32;;;;;;;4.67;1.10;;;4.90;99.90;;;;;;5013678;28;20188;-72
2024/01/11 09:53:03;;;;;;;4.70;1.50;;;4.90;99.90;;;;;;5031560;28;20193;-71
2024/01/11 09:55:28;;;;;;;5.13;1.13;;;4.80;99.90;;;;;;5031363;28;20178;-71
2024/01/11 09:57:59;;;;;;;5.27;1.40;;;5.00;99.90;;;;;;5031269;28;20721;-72
2024/01/11 10:00:26;;;;;;;10.10;1.30;;;4.90;99.90;;;;;;5031298;28;20201;-72
2024/01/11 10:02:52;;;;;;;6.13;1.03;;;5.10;99.90;;;;;;5031222;28;20241;-71
2024/01/11 10:05:18;;;;;;;8.23;1.53;;;5.20;99.90;;;;;;5031333;28;20224;-71
2024/01/11 10:07:45;;;;;;;5.67;1.60;;;5.20;99.90;;;;;;5034076;28;20180;-71
2024/01/11 10:10:15;;;;;;;14.30;1.70;;;5.10;99.90;;;;;;5043967;28;20185;-71
2024/01/11 10:12:40;;;;;;;5.10;1.40;;;5.20;99.90;;;;;;5051060;28;20266;-71
2024/01/11 10:15:10;;;;;;;2.97;1.17;;;5.30;99.90;;;;;;5051137;28;20639;-71
2024/01/11 10:17:46;;;;;;;8.40;1.40;;;5.40;99.90;;;;;;5051023;28;20212;-72
2024/01/11 10:20:16;;;;;;;5.77;1.33;;;5.60;99.90;;;;;;5051092;28;20513;-72
2024/01/11 10:22:42;;;;;;;5.03;1.27;;;5.80;99.90;;;;;;5051025;28;20172;-73
2024/01/11 10:25:13;;;;;;;3.60;1.27;;;5.90;99.90;;;;;;5050882;28;20184;-72
2024/01/11 10:27:43;;;;;;;3.73;1.03;;;5.80;99.90;;;;;;5051083;28;20181;-72
2024/01/11 10:30:13;;;;;;;7.30;1.23;;;6.10;99.90;;;;;;5050953;28;20169;-72
2024/01/11 10:32:39;;;;;;;5.60;1.50;;;6.60;99.90;;;;;;5052858;28;20184;-72
2024/01/11 10:35:05;;;;;;;4.50;1.40;;;7.10;99.90;;;;;;5054979;28;20176;-72
2024/01/11 10:37:35;;;;;;;5.10;1.13;;;7.00;99.90;;;;;;5054781;28;20213;-72
2024/01/11 10:40:15;;;;;;;4.00;1.10;;;7.20;99.90;;;;;;5054832;28;20177;-72
2024/01/11 10:42:45;;;;;;;6.30;1.43;;;7.30;99.90;;;;;;5054856;28;20211;-71
2024/01/11 10:45:20;;;;;;;3.73;1.30;;;7.50;99.90;;;;;;5036786;28;20181;-71
2024/01/11 10:48:01;;;;;;;5.20;0.90;;;7.70;99.90;;;;;;5054669;28;20168;-71
2024/01/11 10:50:30;;;;;;;3.73;1.30;;;7.70;96.20;;;;;;5054680;28;20264;-70
2024/01/11 10:53:03;;;;;;;4.63;1.10;;;8.50;45.00;;;;;;5054538;28;20207;-71
2024/01/11 10:55:31;;;;;;;9.03;1.47;;;9.40;1.00;;;;;;5036729;28;20647;-71
2024/01/11 10:57:59;;;;;;;5.13;1.20;;;9.50;1.00;;;;;;5054624;28;20263;-71
2024/01/11 11:00:26;;;;;;;3.50;1.13;;;9.10;99.90;;;;;;5054503;28;20181;-71
2024/01/11 11:02:54;;;;;;;5.07;1.10;;;9.10;51.60;;;;;;5036385;28;20229;-70
2024/01/11 11:05:22;;;;;;;6.10;1.63;;;9.00;1.00;;;;;;5054361;28;20162;-71
2024/01/11 11:07:50;;;;;;;6.37;1.20;;;9.40;99.90;;;;;;5054380;28;20157;-71
2024/01/11 11:10:18;;;;;;;4.07;1.17;;;9.70;68.40;;;;;;5054355;28;20219;-71
2024/01/11 11:12:46;;;;;;;6.17;1.00;;;9.40;1.00;;;;;;5054338;28;20173;-71
2024/01/11 11:15:12;;;;;;;3.17;1.53;;;9.10;1.00;;;;;;5054319;28;20181;-71
2024/01/11 11:17:40;;;;;;;6.33;1.40;;;10.70;1.00;;;;;;5054180;28;20227;-71
2024/01/11 11:20:08;;;;;;;4.07;1.30;;;10.60;99.90;;;;;;5054205;28;20161;-71
2024/01/11 11:22:35;;;;;;;5.10;1.37;;;10.20;99.90;;;;;;5054072;28;20201;-72
2024/01/11 11:25:23;;;;;;;4.33;1.23;;;9.70;99.90;;;;;;5054149;28;20188;-72
2024/01/11 11:27:49;;;;;;;2.03;1.23;;;10.10;99.90;;;;;;5054028;28;20570;-72
2024/01/11 11:30:18;;;;;;;5.80;1.10;;;10.70;20.50;;;;;;5054037;28;20169;-72
2024/01/11 11:32:44;;;;;;;4.63;1.10;;;11.50;83.90;;;;;;5035945;28;20181;-72
2024/01/11 11:35:10;;;;;;;8.23;1.10;;;11.60;99.90;;;;;;5053919;28;20244;-72
2024/01/11 11:37:39;;;;;;;7.27;1.37;;;11.70;17.50;;;;;;5035806;28;20201;-71
2024/01/11 11:40:07;;;;;;;8.73;1.23;;;11.40;1.00;;;;;;5053825;28;20177;-71
2024/01/11 11:42:36;;;;;;;4.77;1.10;;;10.80;1.00;;;;;;5053668;28;20169;-72
2024/01/11 11:45:02;;;;;;;3.60;1.10;;;11.00;1.00;;;;;;5052684;28;20665;-72
2024/01/11 11:47:35;;;;;;;6.13;1.60;;;11.30;1.00;;;;;;5053774;28;20216;-72
2024/01/11 11:50:09;;;;;;;5.60;1.27;;;10.80;1.00;;;;;;5053571;28;20242;-72
2024/01/11 11:52:37;;;;;;;4.17;1.60;;;9.90;99.90;;;;;;5053662;28;20189;-71
2024/01/11 11:55:05;;;;;;;3.87;1.60;;;9.20;1.00;;;;;;5053502;28;20169;-71
2024/01/11 11:57:31;;;;;;;7.20;1.83;;;8.30;1.00;;;;;;5053399;28;20338;-71
2024/01/11 11:59:58;;;;;;;7.93;1.40;;;8.40;1.00;;;;;;5053424;28;20180;-71
2024/01/11 12:02:25;;;;;;;5.70;1.60;;;9.20;99.90;;;;;;5053286;28;20485;-72
2024/01/11 12:04:51;;;;;;;4.30;1.80;;;13.40;77.60;;;;;;5053359;28;20559;-71
2024/01/11 12:07:17;;;;;;;5.72;1.83;;;13.90;1.00;;;;;;5053201;28;20161;-72
2024/01/11 12:09:43;;;;;;;5.53;1.50;;;15.50;1.00;;;;;;5053240;28;20165;-71
2024/01/11 12:12:09;;;;;;;2.17;1.30;;;14.80;99.90;;;;;;5039020;28;20173;-71
2024/01/11 12:14:35;;;;;;;2.15;1.08;;;17.10;99.90;;;;;;5053037;28;20610;-71
2024/01/11 12:17:01;;;;;;;5.93;1.60;;;18.10;1.00;;;;;;5043376;28;20253;-71
2024/01/11 12:19:28;;;;;;;6.85;2.05;;;19.60;1.00;;;;;;5032661;28;20300;-71
2024/01/11 12:21:54;;;;;;;6.03;1.20;;;19.70;1.00;;;;;;5032794;28;20200;-71
2024/01/11 12:24:23;;;;;;;5.20;1.70;;;20.20;99.90;;;;;;5032702;28;20173;-71
2024/01/11 12:26:53;;;;;;;5.28;1.27;;;20.40;1.00;;;;;;5032951;28;20228;-72
2024/01/11 12:29:20;;;;;;;6.57;1.88;;;20.50;99.90;;;;;;5043815;28;20165;-72
2024/01/11 12:31:45;;;;;;;8.98;1.83;;;20.30;1.00;;;;;;5054353;28;20173;-71
2024/01/11 12:34:15;;;;;;;5.80;2.03;;;18.00;99.90;;;;;;5052506;28;20219;-71
2024/01/11 12:36:41;;;;;;;12.50;2.63;;;14.80;1.00;;;;;;5052469;28;20166;-71
2024/01/11 12:39:08;;;;;;;7.80;2.30;;;12.00;1.00;;;;;;5034424;28;20695;-71
2024/01/11 12:41:35;;;;;;;6.38;2.55;;;12.20;99.90;;;;;;5052395;28;20169;-71
2024/01/11 12:44:01;;;;;;;9.95;2.60;;;12.00;1.00;;;;;;5034282;28;20245;-72
2024/01/11 12:46:27;;;;;;;6.57;2.80;;;12.90;99.90;;;;;;5052376;28;20158;-71
2024/01/11 12:48:52;;;;;;;6.70;2.40;;;11.90;99.90;;;;;;5052430;28;20180;-71
2024/01/11 12:51:19;;;;;;;4.05;1.48;;;11.50;1.00;;;;;;5052235;28;20167;-71
2024/01/11 12:53:48;;;;;;;4.82;1.77;;;12.60;1.00;;;;;;5052301;28;20647;-71